createdAt,value
2022-10-08T00:01:19.988Z,38.07
2022-10-08T00:03:52.445Z,44.37
2022-10-08T00:06:22.419Z,41.43
2022-10-08T00:08:52.852Z,41.87
2022-10-08T00:11:22.997Z,42.87
2022-10-08T00:13:53.320Z,31.90
2022-10-08T00:16:24.374Z,38.20
2022-10-08T00:18:56.518Z,29.87
2022-10-08T00:21:28.138Z,33.87
2022-10-08T00:23:58.013Z,36.77
2022-10-08T00:26:28.997Z,31.03
2022-10-08T00:28:59.265Z,44.43
2022-10-08T00:31:30.372Z,35.67
2022-10-08T00:34:01.679Z,34.17
2022-10-08T00:36:32.609Z,40.17
2022-10-08T00:39:02.865Z,39.93
2022-10-08T00:41:34.520Z,39.50
2022-10-08T00:44:05.133Z,37.43
2022-10-08T00:46:38.410Z,37.77
2022-10-08T00:49:15.155Z,50.23
2022-10-08T00:51:49.615Z,36.57
2022-10-08T00:54:19.709Z,39.03
2022-10-08T00:56:51.611Z,36.00
2022-10-08T00:59:21.009Z,39.30
2022-10-08T01:01:49.705Z,31.77
2022-10-08T01:04:19.823Z,37.73
2022-10-08T01:06:55.484Z,30.43
2022-10-08T01:09:30.630Z,41.07
2022-10-08T01:12:07.674Z,32.67
2022-10-08T01:14:45.028Z,34.07
2022-10-08T01:17:22.697Z,36.83
2022-10-08T01:20:31.690Z,36.83
2022-10-08T01:23:29.633Z,36.77
2022-10-08T01:26:04.631Z,36.03
2022-10-08T01:28:40.404Z,36.77
2022-10-08T01:31:13.565Z,42.67
2022-10-08T01:33:54.979Z,30.37
2022-10-08T01:36:24.595Z,35.93
2022-10-08T01:38:57.186Z,33.13
2022-10-08T01:41:29.497Z,37.30
2022-10-08T01:44:03.682Z,30.00
2022-10-08T01:46:34.129Z,35.00
2022-10-08T01:49:07.841Z,38.03
2022-10-08T01:51:41.642Z,35.33
2022-10-08T01:54:16.451Z,33.90
2022-10-08T01:56:47.597Z,34.30
2022-10-08T01:59:22.990Z,33.03
2022-10-08T02:01:57.425Z,34.10
2022-10-08T02:04:37.232Z,32.43
2022-10-08T02:07:09.606Z,33.13
2022-10-08T02:09:41.274Z,35.33
2022-10-08T02:12:10.936Z,30.60
2022-10-08T02:14:48.446Z,29.57
2022-10-08T02:17:26.424Z,30.70
2022-10-08T02:19:58.643Z,30.10
2022-10-08T02:22:33.286Z,28.57
2022-10-08T02:25:07.584Z,31.00
2022-10-08T02:27:44.676Z,36.43
2022-10-08T02:30:15.385Z,41.87
2022-10-08T02:32:52.300Z,35.30
2022-10-08T02:35:26.954Z,39.40
2022-10-08T02:38:00.701Z,41.60
2022-10-08T02:40:31.584Z,33.07
2022-10-08T02:43:07.613Z,36.03
2022-10-08T02:45:44.088Z,30.93
2022-10-08T02:48:18.428Z,49.27
2022-10-08T02:50:50.339Z,39.93
2022-10-08T02:53:20.415Z,34.03
2022-10-08T02:55:54.796Z,43.23
2022-10-08T02:58:23.839Z,36.00
2022-10-08T03:01:00.144Z,36.57
2022-10-08T03:03:33.677Z,39.97
2022-10-08T03:06:05.964Z,37.53
2022-10-08T03:08:36.670Z,31.83
2022-10-08T03:11:06.277Z,30.13
2022-10-08T03:13:37.999Z,48.33
2022-10-08T03:16:09.956Z,33.27
2022-10-08T03:18:39.388Z,34.63
2022-10-08T03:21:12.990Z,36.33
2022-10-08T03:23:41.640Z,32.13
2022-10-08T03:26:10.226Z,30.93
2022-10-08T03:28:38.751Z,31.80
2022-10-08T03:31:08.925Z,36.33
2022-10-08T03:33:38.077Z,33.73
2022-10-08T03:36:07.629Z,38.70
2022-10-08T03:38:36.907Z,34.73
2022-10-08T03:41:05.391Z,40.50
2022-10-08T03:43:34.973Z,34.27
2022-10-08T03:46:04.356Z,41.40
2022-10-08T03:48:34.687Z,53.50
2022-10-08T03:51:05.357Z,31.70
2022-10-08T03:53:35.906Z,34.70
2022-10-08T03:56:06.456Z,31.67
2022-10-08T03:58:35.444Z,35.03
2022-10-08T04:01:06.137Z,39.83
2022-10-08T04:03:36.278Z,38.73
2022-10-08T04:06:05.364Z,43.70
2022-10-08T04:08:35.268Z,33.83
2022-10-08T04:11:05.023Z,33.43
2022-10-08T04:13:34.133Z,41.10
2022-10-08T04:16:05.247Z,40.87
2022-10-08T04:18:35.432Z,32.33
2022-10-08T04:21:06.994Z,41.90
2022-10-08T04:23:38.205Z,46.07
2022-10-08T04:26:08.496Z,36.43
2022-10-08T04:28:39.029Z,35.67
2022-10-08T04:31:09.825Z,30.33
2022-10-08T04:33:40.260Z,37.47
2022-10-08T04:36:10.455Z,32.43
2022-10-08T04:38:39.310Z,34.47
2022-10-08T04:41:09.733Z,35.53
2022-10-08T04:43:39.572Z,35.73
2022-10-08T04:46:10.308Z,33.70
2022-10-08T04:48:41.034Z,32.30
2022-10-08T04:51:10.935Z,34.87
2022-10-08T04:53:40.097Z,36.77
2022-10-08T04:56:14.985Z,34.90
2022-10-08T04:58:43.762Z,33.67
2022-10-08T05:01:14.602Z,35.67
2022-10-08T05:03:46.424Z,33.00
2022-10-08T05:06:16.655Z,36.50
2022-10-08T05:08:45.627Z,41.00
2022-10-08T05:11:14.879Z,42.70
2022-10-08T05:13:44.019Z,37.80
2022-10-08T05:16:14.490Z,34.00
2022-10-08T05:18:44.512Z,33.43
2022-10-08T05:21:14.966Z,35.70
2022-10-08T05:23:44.247Z,34.77
2022-10-08T05:26:17.104Z,31.87
2022-10-08T05:28:47.241Z,38.50
2022-10-08T05:31:16.182Z,38.60
2022-10-08T05:33:46.568Z,37.33
2022-10-08T05:36:18.867Z,33.93
2022-10-08T05:38:47.767Z,38.43
2022-10-08T05:41:17.831Z,34.40
2022-10-08T05:43:47.414Z,39.03
2022-10-08T05:46:17.009Z,49.97
2022-10-08T05:48:47.081Z,35.17
2022-10-08T05:51:17.502Z,31.80
2022-10-08T05:53:51.982Z,37.50
2022-10-08T05:56:22.184Z,42.23
2022-10-08T05:58:51.671Z,45.83
2022-10-08T06:01:22.642Z,28.93
2022-10-08T06:03:54.210Z,38.03
2022-10-08T06:06:23.831Z,34.07
2022-10-08T06:08:55.987Z,32.50
2022-10-08T06:11:24.563Z,31.73
2022-10-08T06:13:54.762Z,28.30
2022-10-08T06:16:23.623Z,33.90
2022-10-08T06:18:53.597Z,28.43
2022-10-08T06:21:23.799Z,32.73
2022-10-08T06:23:54.109Z,45.67
2022-10-08T06:26:23.689Z,29.00
2022-10-08T06:28:52.303Z,27.37
2022-10-08T06:31:21.083Z,34.90
2022-10-08T06:33:49.943Z,32.10
2022-10-08T06:36:24.270Z,29.43
2022-10-08T06:38:54.182Z,26.87
2022-10-08T06:41:23.274Z,21.53
2022-10-08T06:43:51.778Z,26.47
2022-10-08T06:46:21.102Z,19.60
2022-10-08T06:48:49.951Z,26.87
2022-10-08T06:51:20.471Z,21.20
2022-10-08T06:53:55.156Z,24.33
2022-10-08T06:56:24.402Z,31.80
2022-10-08T06:58:53.210Z,25.47
2022-10-08T07:01:26.780Z,20.97
2022-10-08T07:04:00.460Z,21.50
2022-10-08T07:06:30.858Z,21.87
2022-10-08T07:09:01.301Z,18.67
2022-10-08T07:11:32.441Z,16.93
2022-10-08T07:14:01.480Z,19.20
2022-10-08T07:16:30.290Z,13.50
2022-10-08T07:18:59.411Z,11.57
2022-10-08T07:21:30.022Z,14.33
2022-10-08T07:24:00.848Z,18.97
2022-10-08T07:26:32.466Z,14.20
2022-10-08T07:29:02.704Z,35.00
2022-10-08T07:31:33.727Z,13.47
2022-10-08T07:34:04.572Z,16.60
2022-10-08T07:36:34.942Z,12.17
2022-10-08T07:39:06.268Z,14.83
2022-10-08T07:41:35.435Z,6.60
2022-10-08T07:44:05.405Z,10.77
2022-10-08T07:46:35.818Z,10.80
2022-10-08T07:49:05.005Z,15.90
2022-10-08T07:51:35.783Z,11.97
2022-10-08T07:54:07.263Z,8.43
2022-10-08T07:56:36.818Z,16.03
2022-10-08T07:59:06.492Z,14.97
2022-10-08T08:01:35.655Z,8.20
2022-10-08T08:04:06.368Z,20.23
2022-10-08T08:06:40.635Z,10.50
2022-10-08T08:09:09.562Z,20.60
2022-10-08T08:11:39.981Z,16.83
2022-10-08T08:14:08.835Z,12.60
2022-10-08T08:16:37.495Z,19.13
2022-10-08T08:19:06.118Z,10.07
2022-10-08T08:21:38.170Z,17.87
2022-10-08T08:24:10.095Z,9.97
2022-10-08T08:26:39.927Z,7.53
2022-10-08T08:29:10.965Z,8.73
2022-10-08T08:31:41.447Z,14.57
2022-10-08T08:34:12.984Z,10.53
2022-10-08T08:36:44.681Z,13.17
2022-10-08T08:39:17.382Z,13.10
2022-10-08T08:42:17.593Z,13.30
2022-10-08T08:44:48.111Z,11.00
2022-10-08T08:47:21.486Z,20.70
2022-10-08T08:49:54.388Z,10.00
2022-10-08T08:52:26.315Z,15.00
2022-10-08T08:54:55.177Z,16.40
2022-10-08T08:57:36.999Z,12.27
2022-10-08T09:00:11.574Z,15.70
2022-10-08T09:02:50.918Z,10.50
2022-10-08T09:05:20.910Z,10.73
2022-10-08T09:07:56.642Z,14.47
2022-10-08T09:10:34.790Z,12.93
2022-10-08T09:13:03.764Z,12.40
2022-10-08T09:15:37.409Z,13.27
2022-10-08T09:18:06.527Z,14.37
2022-10-08T09:20:40.098Z,13.97
2022-10-08T09:23:16.548Z,10.80
2022-10-08T09:25:49.292Z,15.60
2022-10-08T09:28:40.541Z,11.43
2022-10-08T09:31:27.965Z,13.50
2022-10-08T09:34:05.352Z,3.97
2022-10-08T09:36:37.791Z,13.03
2022-10-08T09:39:18.643Z,11.53
2022-10-08T09:41:48.616Z,10.17
2022-10-08T09:44:21.017Z,13.03
2022-10-08T09:47:04.865Z,12.93
2022-10-08T09:49:35.579Z,9.50
2022-10-08T09:52:11.395Z,13.00
2022-10-08T09:54:48.977Z,22.10
2022-10-08T09:57:18.889Z,14.70
2022-10-08T09:59:53.014Z,16.43
2022-10-08T10:02:38.009Z,10.00
2022-10-08T10:05:08.382Z,10.70
2022-10-08T10:07:42.293Z,11.80
2022-10-08T10:10:29.031Z,8.80
2022-10-08T10:13:04.206Z,12.50
2022-10-08T10:15:38.446Z,11.73
2022-10-08T10:18:13.286Z,15.97
2022-10-08T10:20:44.374Z,8.27
2022-10-08T10:23:17.652Z,9.87
2022-10-08T10:25:51.773Z,7.10
2022-10-08T10:28:29.223Z,4.33
2022-10-08T10:31:02.909Z,8.60
2022-10-08T10:33:34.014Z,10.57
2022-10-08T10:36:06.805Z,3.17
2022-10-08T10:38:43.207Z,4.13
2022-10-08T10:41:20.911Z,5.93
2022-10-08T10:43:53.348Z,13.67
2022-10-08T10:46:29.619Z,16.80
2022-10-08T10:49:02.249Z,6.40
2022-10-08T10:51:45.088Z,12.70
2022-10-08T10:54:39.055Z,8.83
2022-10-08T10:57:19.232Z,10.33
2022-10-08T10:59:54.433Z,8.83
2022-10-08T11:02:28.788Z,5.47
2022-10-08T11:05:07.430Z,8.77
2022-10-08T11:08:03.889Z,5.87
2022-10-08T11:10:44.828Z,17.40
2022-10-08T11:13:29.955Z,5.03
2022-10-08T11:16:09.813Z,3.90
2022-10-08T11:18:46.793Z,10.93
2022-10-08T11:21:28.717Z,5.57
2022-10-08T11:24:22.530Z,5.07
2022-10-08T11:27:00.617Z,4.77
2022-10-08T11:29:39.404Z,6.77
2022-10-08T11:32:13.781Z,5.60
2022-10-08T11:34:47.755Z,7.70
2022-10-08T11:37:24.585Z,10.73
2022-10-08T11:40:04.185Z,6.60
2022-10-08T11:42:46.218Z,12.53
2022-10-08T11:45:32.647Z,4.37
2022-10-08T11:48:05.409Z,12.37
2022-10-08T11:50:40.984Z,3.47
2022-10-08T11:53:21.003Z,4.53
2022-10-08T11:55:53.804Z,8.63
2022-10-08T11:58:28.021Z,7.60
2022-10-08T12:01:07.357Z,6.83
2022-10-08T12:03:38.707Z,9.17
2022-10-08T12:06:18.383Z,12.67
2022-10-08T12:08:53.617Z,8.53
2022-10-08T12:11:48.767Z,6.53
2022-10-08T12:14:46.665Z,5.13
2022-10-08T12:17:18.270Z,9.40
2022-10-08T12:20:21.516Z,5.30
2022-10-08T12:23:08.298Z,6.60
2022-10-08T12:25:40.192Z,6.30
2022-10-08T12:28:46.407Z,6.33
2022-10-08T12:31:31.032Z,7.77
2022-10-08T12:34:04.933Z,4.70
2022-10-08T12:36:45.380Z,2.50
2022-10-08T12:39:34.866Z,7.97
2022-10-08T12:42:13.053Z,6.47
2022-10-08T12:44:52.252Z,6.83
2022-10-08T12:47:35.919Z,7.47
2022-10-08T12:50:20.068Z,2.30
2022-10-08T12:52:49.508Z,3.17
2022-10-08T12:55:22.232Z,4.03
2022-10-08T12:57:52.182Z,5.13
2022-10-08T13:00:27.645Z,2.00
2022-10-08T13:03:08.043Z,4.13
2022-10-08T13:05:45.303Z,7.90
2022-10-08T13:08:35.116Z,7.23
2022-10-08T13:11:08.733Z,3.23
2022-10-08T13:13:49.252Z,7.60
2022-10-08T13:16:20.904Z,8.57
2022-10-08T13:18:53.823Z,2.50
2022-10-08T13:21:37.255Z,8.20
2022-10-08T13:24:39.165Z,4.40
2022-10-08T13:27:28.172Z,8.37
2022-10-08T13:29:58.858Z,4.17
2022-10-08T13:32:30.008Z,7.90
2022-10-08T13:35:01.731Z,7.87
2022-10-08T13:37:36.423Z,7.17
2022-10-08T13:40:19.540Z,9.43
2022-10-08T13:42:52.006Z,9.03
2022-10-08T13:45:23.202Z,5.33
2022-10-08T13:47:52.263Z,5.50
2022-10-08T13:50:22.775Z,8.07
2022-10-08T13:52:55.115Z,10.03
2022-10-08T13:55:27.636Z,9.47
2022-10-08T13:57:57.352Z,5.83
2022-10-08T14:00:27.593Z,4.57
2022-10-08T14:02:57.169Z,6.37
2022-10-08T14:05:29.965Z,5.73
2022-10-08T14:08:09.941Z,7.37
2022-10-08T14:10:41.028Z,4.80
2022-10-08T14:13:11.174Z,11.20
2022-10-08T14:15:55.513Z,31.40
2022-10-08T14:18:27.855Z,6.70
2022-10-08T14:20:57.159Z,5.50
2022-10-08T14:23:28.372Z,11.03
2022-10-08T14:25:57.525Z,6.40
2022-10-08T14:28:26.470Z,4.67
2022-10-08T14:30:54.970Z,5.93
2022-10-08T14:33:23.551Z,2.80
2022-10-08T14:35:53.670Z,2.77
2022-10-08T14:38:22.399Z,1.73
2022-10-08T14:40:52.425Z,6.20
2022-10-08T14:43:22.050Z,1.50
2022-10-08T14:45:53.517Z,1.90
2022-10-08T14:48:22.448Z,3.67
2022-10-08T14:50:51.048Z,6.20
2022-10-08T14:53:19.709Z,5.10
2022-10-08T14:56:11.051Z,4.13
2022-10-08T14:58:39.653Z,1.77
2022-10-08T15:01:08.613Z,3.67
2022-10-08T15:03:37.706Z,1.70
2022-10-08T15:06:06.515Z,4.63
2022-10-08T15:08:35.824Z,6.10
2022-10-08T15:11:04.932Z,3.97
2022-10-08T15:13:33.827Z,2.60
2022-10-08T15:16:04.545Z,6.40
2022-10-08T15:18:33.404Z,4.43
2022-10-08T15:21:02.437Z,4.83
2022-10-08T15:23:30.928Z,5.20
2022-10-08T15:26:00.869Z,3.00
2022-10-08T15:28:30.027Z,6.67
2022-10-08T15:31:08.929Z,6.30
2022-10-08T15:33:41.233Z,8.20
2022-10-08T15:36:19.639Z,8.00
2022-10-08T15:38:49.138Z,3.13
2022-10-08T15:41:18.344Z,3.67
2022-10-08T15:43:47.201Z,6.07
2022-10-08T15:46:20.277Z,3.90
2022-10-08T15:48:56.303Z,2.80
2022-10-08T15:51:25.762Z,2.83
2022-10-08T15:53:54.237Z,5.47
2022-10-08T15:56:22.748Z,8.70
2022-10-08T15:58:51.870Z,7.53
2022-10-08T16:01:23.966Z,4.37
2022-10-08T16:03:54.965Z,10.40
2022-10-08T16:06:25.149Z,4.43
2022-10-08T16:08:54.237Z,8.10
2022-10-08T16:11:24.315Z,8.60
2022-10-08T16:13:54.262Z,6.37
2022-10-08T16:16:24.592Z,12.13
2022-10-08T16:19:01.195Z,17.47
2022-10-08T16:21:31.937Z,3.63
2022-10-08T16:24:01.468Z,4.83
2022-10-08T16:26:31.875Z,7.17
2022-10-08T16:29:02.822Z,4.53
2022-10-08T16:31:34.807Z,14.17
2022-10-08T16:34:05.272Z,8.13
2022-10-08T16:36:36.509Z,9.40
2022-10-08T16:39:06.195Z,8.03
2022-10-08T16:41:36.102Z,8.40
2022-10-08T16:44:12.027Z,5.80
2022-10-08T16:46:44.504Z,5.80
2022-10-08T16:49:21.102Z,6.60
2022-10-08T16:51:53.232Z,8.93
2022-10-08T16:54:22.041Z,5.43
2022-10-08T16:56:51.006Z,7.20
2022-10-08T16:59:21.685Z,11.13
2022-10-08T17:01:53.702Z,10.73
2022-10-08T17:04:23.552Z,15.23
2022-10-08T17:06:52.265Z,13.77
2022-10-08T17:09:21.446Z,11.63
2022-10-08T17:11:50.170Z,10.60
2022-10-08T17:14:18.697Z,6.40
2022-10-08T17:16:47.392Z,6.30
2022-10-08T17:19:17.449Z,13.80
2022-10-08T17:21:46.399Z,17.77
2022-10-08T17:24:15.192Z,12.93
2022-10-08T17:26:43.656Z,6.30
2022-10-08T17:29:13.455Z,9.57
2022-10-08T17:31:42.299Z,11.63
2022-10-08T17:34:11.754Z,18.93
2022-10-08T17:36:44.111Z,29.40
2022-10-08T17:39:15.024Z,19.20
2022-10-08T17:41:44.340Z,15.43
2022-10-08T17:44:12.963Z,19.53
2022-10-08T17:46:45.425Z,20.63
2022-10-08T17:49:15.205Z,10.17
2022-10-08T17:51:45.653Z,11.33
2022-10-08T17:54:16.374Z,15.10
2022-10-08T17:56:44.928Z,8.10
2022-10-08T17:59:15.789Z,9.57
2022-10-08T18:01:45.555Z,11.23
2022-10-08T18:04:16.568Z,13.83
2022-10-08T18:06:48.012Z,11.33
2022-10-08T18:09:19.347Z,14.10
2022-10-08T18:11:51.952Z,8.57
2022-10-08T18:14:20.947Z,9.20
2022-10-08T18:16:49.435Z,11.67
2022-10-08T18:19:18.782Z,8.30
2022-10-08T18:21:48.660Z,10.83
2022-10-08T18:24:17.822Z,10.97
2022-10-08T18:26:46.786Z,7.73
2022-10-08T18:29:16.504Z,8.30
2022-10-08T18:31:46.848Z,6.70
2022-10-08T18:34:17.321Z,11.10
2022-10-08T18:36:47.661Z,4.33
2022-10-08T18:39:18.033Z,13.23
2022-10-08T18:41:48.100Z,3.90
2022-10-08T18:44:18.130Z,5.80
2022-10-08T18:46:47.241Z,11.60
2022-10-08T18:49:17.139Z,7.43
2022-10-08T18:51:49.524Z,9.30
2022-10-08T18:54:18.115Z,8.47
2022-10-08T18:56:46.602Z,9.90
2022-10-08T18:59:16.883Z,8.37
2022-10-08T19:01:47.394Z,11.60
2022-10-08T19:04:18.106Z,11.67
2022-10-08T19:06:53.426Z,13.23
2022-10-08T19:09:22.623Z,21.30
2022-10-08T19:11:52.741Z,20.90
2022-10-08T19:14:23.275Z,18.20
2022-10-08T19:16:52.214Z,6.60
2022-10-08T19:19:22.057Z,12.80
2022-10-08T19:21:54.153Z,15.47
2022-10-08T19:24:24.415Z,17.40
2022-10-08T19:26:53.878Z,21.10
2022-10-08T19:29:24.551Z,41.93
2022-10-08T19:31:53.161Z,13.10
2022-10-08T19:34:23.656Z,19.67
2022-10-08T19:36:53.675Z,12.90
2022-10-08T19:39:23.576Z,15.50
2022-10-08T19:41:52.074Z,9.83
2022-10-08T19:44:20.985Z,13.50
2022-10-08T19:46:49.783Z,15.60
2022-10-08T19:49:18.948Z,10.87
2022-10-08T19:51:47.427Z,7.50
2022-10-08T19:54:18.319Z,10.60
2022-10-08T19:56:47.207Z,4.80
2022-10-08T19:59:16.275Z,12.70
2022-10-08T20:01:44.958Z,6.43
2022-10-08T20:04:14.035Z,4.93
2022-10-08T20:06:43.809Z,8.80
2022-10-08T20:09:14.163Z,4.97
2022-10-08T20:11:45.063Z,4.37
2022-10-08T20:14:14.375Z,13.93
2022-10-08T20:16:44.083Z,8.00
2022-10-08T20:19:17.083Z,3.73
2022-10-08T20:21:45.832Z,2.50
2022-10-08T20:24:14.681Z,7.87
2022-10-08T20:26:45.675Z,2.33
2022-10-08T20:29:16.829Z,16.93
2022-10-08T20:31:49.206Z,4.47
2022-10-08T20:34:18.945Z,14.83
2022-10-08T20:36:48.717Z,12.67
2022-10-08T20:39:18.632Z,22.10
2022-10-08T20:41:49.131Z,8.90
2022-10-08T20:44:17.928Z,8.60
2022-10-08T20:46:46.735Z,6.13
2022-10-08T20:49:15.302Z,7.77
2022-10-08T20:51:44.848Z,8.73
2022-10-08T20:54:15.477Z,5.83
2022-10-08T20:56:44.289Z,5.57
2022-10-08T20:59:17.254Z,6.97
2022-10-08T21:01:46.037Z,11.40
2022-10-08T21:04:14.582Z,13.30
2022-10-08T21:06:45.562Z,8.47
2022-10-08T21:09:15.421Z,9.27
2022-10-08T21:11:45.828Z,4.53
2022-10-08T21:14:17.962Z,5.67
2022-10-08T21:16:46.886Z,9.83
2022-10-08T21:19:18.751Z,6.13
2022-10-08T21:21:47.287Z,8.80
2022-10-08T21:24:16.100Z,6.97
2022-10-08T21:26:44.637Z,6.13
2022-10-08T21:29:16.245Z,7.00
2022-10-08T21:31:44.975Z,9.33
2022-10-08T21:34:13.838Z,5.03
2022-10-08T21:36:44.603Z,4.93
2022-10-08T21:39:17.403Z,8.23
2022-10-08T21:41:46.895Z,11.63
2022-10-08T21:44:16.914Z,10.70
2022-10-08T21:46:45.901Z,6.93
2022-10-08T21:49:15.902Z,5.93
2022-10-08T21:51:44.943Z,10.27
2022-10-08T21:54:14.259Z,7.33
2022-10-08T21:56:43.639Z,4.67
2022-10-08T21:59:14.517Z,8.50
2022-10-08T22:01:46.743Z,7.50
2022-10-08T22:04:17.668Z,8.63
2022-10-08T22:06:48.271Z,8.07
2022-10-08T22:09:19.276Z,12.70
2022-10-08T22:11:47.956Z,13.33
2022-10-08T22:14:16.807Z,12.43
2022-10-08T22:16:47.400Z,9.40
2022-10-08T22:19:16.241Z,10.10
2022-10-08T22:21:45.087Z,9.70
2022-10-08T22:24:13.965Z,7.93
2022-10-08T22:26:44.328Z,13.40
2022-10-08T22:29:13.446Z,8.97
2022-10-08T22:31:41.958Z,9.60
2022-10-08T22:34:12.048Z,9.53
2022-10-08T22:36:42.621Z,12.63
2022-10-08T22:39:11.802Z,8.73
2022-10-08T22:41:40.269Z,5.70
2022-10-08T22:44:08.998Z,11.90
2022-10-08T22:46:39.697Z,7.70
2022-10-08T22:49:09.821Z,9.60
2022-10-08T22:51:40.624Z,14.07
2022-10-08T22:54:10.018Z,8.23
2022-10-08T22:56:38.651Z,9.03
2022-10-08T22:59:07.102Z,4.97
2022-10-08T23:01:35.588Z,7.77
2022-10-08T23:04:04.082Z,8.80
2022-10-08T23:06:34.206Z,6.93
2022-10-08T23:09:06.528Z,9.70
2022-10-08T23:11:35.408Z,5.20
2022-10-08T23:14:04.158Z,11.07
2022-10-08T23:16:33.939Z,6.53
2022-10-08T23:19:04.064Z,8.20
2022-10-08T23:21:33.172Z,4.63
2022-10-08T23:24:03.098Z,7.17
2022-10-08T23:26:31.747Z,8.83
2022-10-08T23:29:01.441Z,11.47
2022-10-08T23:31:31.891Z,7.90
2022-10-08T23:34:00.844Z,10.73
2022-10-08T23:36:31.348Z,7.00
2022-10-08T23:39:00.347Z,8.47
2022-10-08T23:41:30.423Z,8.23
2022-10-08T23:43:59.258Z,7.57
2022-10-08T23:46:29.706Z,9.63
2022-10-08T23:48:59.191Z,8.60
2022-10-08T23:51:29.301Z,9.43
2022-10-08T23:53:57.740Z,7.57
2022-10-08T23:56:26.216Z,4.53
2022-10-08T23:58:56.282Z,5.57
